IDs: Format: Raw Decoded Include TAF

Data at: 2032 UTC 23 Mar 2018

METAR for:KSAT (San Antonio Intl, TX, US)
Text:KSAT 231951Z 16016G22KT 10SM BKN031 OVC038 24/17 A3004 RMK AO2 SLP158 T02390167
Temperature: 23.9°C ( 75°F)
Dewpoint: 16.7°C ( 62°F) [RH = 64%]
Pressure (altimeter):30.04 inches Hg (1017.4 mb) [Sea level pressure: 1015.8 mb]
Winds:from the SSE (160 degrees) at 18 MPH (16 knots; 8.2 m/s) gusting to 25 MPH (22 knots; 11.3 m/s)
Visibility:10 or more sm (16+ km)
Ceiling:3100 feet AGL
Clouds: broken clouds at 3100 feet AGL, overcast cloud deck at 3800 feet AGL